KCPR/CPR METAR and TAF weather

Enter ICAO airport designator
Station Type Date Time Source
KCPR METAR 2024/02/26 16:53 UTC NOAA

KCPR 261653Z 23032G46KT 10SM CLR 09/M07 A2956 RMK AO2 PK WND 23046/1648 SLP986 T00891067


Station Type Date Time Source
KCPR Decoded METAR 2024/02/26 16:53 UTC NOAA

NATRONA COUNTY INTERNATIONAL AIRPORT , WY, United States (KCPR) 42-54N 106-28W 1621M
Feb 26, 2024 - 11:53 AM EST / 2024.02.26 1653 UTC
Wind: from the SW (230 degrees) at 37 MPH (32 KT) gusting to 53 MPH (46 KT):0
Visibility: 10 mile(s):0
Sky conditions: clear
Temperature: 48.0 F (8.9 C)
Dew Point: 19.9 F (-6.7 C)
Relative Humidity: 32%
Pressure (altimeter): 29.56 in. Hg (1001 hPa)
ob: KCPR 261653Z 23032G46KT 10SM CLR 09/M07 A2956 RMK AO2 PK WND 23046/1648 SLP986 T00891067
cycle: 17

Station Type Date Time Source
KCPR TAF 2024/02/26 12:22 UTC NOAA